Terminal Aerodrome Forecast
Issued by NWS Charleston, WV

Home | Current Version | Previous Version | Text Only | Print | Product List | Glossary On
Versions: 1 2 3 4 5 6 7 8 9 10 11 12 13 14 15 16 17 18 19 20 21 22
654
FTUS41 KRLX 280535
TAFPKB
TAF
KPKB 280535Z 2806/2906 VRB04KT 3SM BR BKN020
     FM280800 00000KT 3SM BR BKN015
      TEMPO 2809/2812 BKN008
     FM281500 21007KT P6SM BKN040
     FM282100 22008KT P6SM SHRA VCTS BKN040CB
     FM282300 21006KT P6SM BKN080
     FM290300 22006KT P6SM SHRA BKN035=

USA.gov is the U.S. government's official web portal to all federal, state and local government web resources and services.